sensor_id;sensor_type;location;lat;lon;timestamp;P1;durP1;ratioP1;P2;durP2;ratioP2
36321;SDS011;23564;48.290;11.460;2022-09-09T00:01:54;2.78;;;1.77;;
36321;SDS011;23564;48.290;11.460;2022-09-09T00:04:45;2.50;;;1.42;;
36321;SDS011;23564;48.290;11.460;2022-09-09T00:15:25;5.28;;;1.70;;
36321;SDS011;23564;48.290;11.460;2022-09-09T00:20:51;6.55;;;1.70;;
36321;SDS011;23564;48.290;11.460;2022-09-09T00:23:30;2.53;;;1.40;;
36321;SDS011;23564;48.290;11.460;2022-09-09T00:28:55;3.13;;;1.40;;
36321;SDS011;23564;48.290;11.460;2022-09-09T00:31:44;2.03;;;1.30;;
36321;SDS011;23564;48.290;11.460;2022-09-09T00:36:41;3.28;;;1.50;;
36321;SDS011;23564;48.290;11.460;2022-09-09T00:44:38;1.85;;;1.48;;
36321;SDS011;23564;48.290;11.460;2022-09-09T00:52:51;1.98;;;1.20;;
36321;SDS011;23564;48.290;11.460;2022-09-09T00:55:29;3.38;;;1.90;;
36321;SDS011;23564;48.290;11.460;2022-09-09T00:57:57;6.40;;;2.03;;
36321;SDS011;23564;48.290;11.460;2022-09-09T01:00:27;3.13;;;1.88;;
36321;SDS011;23564;48.290;11.460;2022-09-09T01:11:52;4.80;;;2.10;;
36321;SDS011;23564;48.290;11.460;2022-09-09T01:17:03;3.85;;;1.92;;
36321;SDS011;23564;48.290;11.460;2022-09-09T01:27:50;4.97;;;1.92;;
36321;SDS011;23564;48.290;11.460;2022-09-09T01:30:18;9.75;;;2.35;;
36321;SDS011;23564;48.290;11.460;2022-09-09T01:32:46;4.53;;;1.83;;
36321;SDS011;23564;48.290;11.460;2022-09-09T01:35:27;5.45;;;1.90;;
36321;SDS011;23564;48.290;11.460;2022-09-09T01:38:00;2.80;;;1.65;;
36321;SDS011;23564;48.290;11.460;2022-09-09T01:40:25;3.65;;;2.00;;
36321;SDS011;23564;48.290;11.460;2022-09-09T01:42:51;5.72;;;1.90;;
36321;SDS011;23564;48.290;11.460;2022-09-09T01:45:18;3.38;;;1.77;;
36321;SDS011;23564;48.290;11.460;2022-09-09T01:47:44;3.50;;;1.92;;
36321;SDS011;23564;48.290;11.460;2022-09-09T01:50:11;5.45;;;2.53;;
36321;SDS011;23564;48.290;11.460;2022-09-09T01:52:41;4.00;;;1.55;;
36321;SDS011;23564;48.290;11.460;2022-09-09T01:55:08;3.15;;;1.63;;
36321;SDS011;23564;48.290;11.460;2022-09-09T01:57:54;2.72;;;1.27;;
36321;SDS011;23564;48.290;11.460;2022-09-09T02:00:42;4.75;;;1.88;;
36321;SDS011;23564;48.290;11.460;2022-09-09T02:03:20;6.65;;;2.03;;
36321;SDS011;23564;48.290;11.460;2022-09-09T02:08:40;7.22;;;1.52;;
36321;SDS011;23564;48.290;11.460;2022-09-09T02:11:18;3.38;;;1.50;;
36321;SDS011;23564;48.290;11.460;2022-09-09T02:13:46;3.13;;;1.45;;
36321;SDS011;23564;48.290;11.460;2022-09-09T02:16:47;3.75;;;1.60;;
36321;SDS011;23564;48.290;11.460;2022-09-09T02:19:32;4.45;;;1.65;;
36321;SDS011;23564;48.290;11.460;2022-09-09T02:22:00;3.80;;;1.60;;
36321;SDS011;23564;48.290;11.460;2022-09-09T02:24:27;2.85;;;1.35;;
36321;SDS011;23564;48.290;11.460;2022-09-09T02:26:58;3.22;;;1.40;;
36321;SDS011;23564;48.290;11.460;2022-09-09T02:29:30;2.05;;;1.30;;
36321;SDS011;23564;48.290;11.460;2022-09-09T02:32:00;2.47;;;1.60;;
36321;SDS011;23564;48.290;11.460;2022-09-09T02:34:30;1.60;;;1.40;;
36321;SDS011;23564;48.290;11.460;2022-09-09T02:36:58;3.80;;;1.30;;
36321;SDS011;23564;48.290;11.460;2022-09-09T02:39:25;4.82;;;1.70;;
36321;SDS011;23564;48.290;11.460;2022-09-09T02:41:51;5.53;;;1.45;;
36321;SDS011;23564;48.290;11.460;2022-09-09T02:44:18;6.38;;;1.65;;
36321;SDS011;23564;48.290;11.460;2022-09-09T02:49:41;5.75;;;1.80;;
36321;SDS011;23564;48.290;11.460;2022-09-09T02:55:29;5.00;;;1.60;;
36321;SDS011;23564;48.290;11.460;2022-09-09T02:58:01;4.13;;;2.08;;
36321;SDS011;23564;48.290;11.460;2022-09-09T03:00:31;4.25;;;1.45;;
36321;SDS011;23564;48.290;11.460;2022-09-09T03:02:57;2.30;;;1.50;;
36321;SDS011;23564;48.290;11.460;2022-09-09T03:05:23;4.93;;;1.65;;
36321;SDS011;23564;48.290;11.460;2022-09-09T03:07:48;6.25;;;1.67;;
36321;SDS011;23564;48.290;11.460;2022-09-09T03:10:15;4.38;;;1.85;;
36321;SDS011;23564;48.290;11.460;2022-09-09T03:12:42;3.38;;;1.65;;
36321;SDS011;23564;48.290;11.460;2022-09-09T03:15:08;1.70;;;1.40;;
36321;SDS011;23564;48.290;11.460;2022-09-09T03:17:34;3.35;;;1.88;;
36321;SDS011;23564;48.290;11.460;2022-09-09T03:20:01;5.47;;;1.88;;
36321;SDS011;23564;48.290;11.460;2022-09-09T03:22:27;4.20;;;2.00;;
36321;SDS011;23564;48.290;11.460;2022-09-09T03:24:53;2.30;;;1.50;;
36321;SDS011;23564;48.290;11.460;2022-09-09T03:27:19;4.90;;;1.65;;
36321;SDS011;23564;48.290;11.460;2022-09-09T03:29:45;3.50;;;1.70;;
36321;SDS011;23564;48.290;11.460;2022-09-09T03:32:11;2.58;;;1.67;;
36321;SDS011;23564;48.290;11.460;2022-09-09T03:34:37;3.75;;;1.90;;
36321;SDS011;23564;48.290;11.460;2022-09-09T03:37:05;4.28;;;1.80;;
36321;SDS011;23564;48.290;11.460;2022-09-09T03:39:31;10.35;;;1.90;;
36321;SDS011;23564;48.290;11.460;2022-09-09T03:41:56;3.33;;;1.60;;
36321;SDS011;23564;48.290;11.460;2022-09-09T03:44:22;3.30;;;1.88;;
36321;SDS011;23564;48.290;11.460;2022-09-09T03:46:48;4.70;;;1.85;;
36321;SDS011;23564;48.290;11.460;2022-09-09T03:49:13;4.00;;;1.33;;
36321;SDS011;23564;48.290;11.460;2022-09-09T03:51:40;3.05;;;1.48;;
36321;SDS011;23564;48.290;11.460;2022-09-09T03:54:06;3.10;;;1.60;;
36321;SDS011;23564;48.290;11.460;2022-09-09T03:56:33;2.47;;;1.50;;
36321;SDS011;23564;48.290;11.460;2022-09-09T03:59:00;5.13;;;2.08;;
36321;SDS011;23564;48.290;11.460;2022-09-09T04:01:25;4.35;;;1.52;;
36321;SDS011;23564;48.290;11.460;2022-09-09T04:03:51;2.90;;;2.00;;
36321;SDS011;23564;48.290;11.460;2022-09-09T04:06:17;3.97;;;1.90;;
36321;SDS011;23564;48.290;11.460;2022-09-09T04:08:45;3.13;;;1.48;;
36321;SDS011;23564;48.290;11.460;2022-09-09T04:11:13;9.38;;;2.25;;
36321;SDS011;23564;48.290;11.460;2022-09-09T04:13:40;2.58;;;1.42;;
36321;SDS011;23564;48.290;11.460;2022-09-09T04:16:06;3.55;;;1.90;;
36321;SDS011;23564;48.290;11.460;2022-09-09T04:18:35;5.32;;;1.42;;
36321;SDS011;23564;48.290;11.460;2022-09-09T04:21:01;2.95;;;1.50;;
36321;SDS011;23564;48.290;11.460;2022-09-09T04:23:27;7.32;;;2.38;;
36321;SDS011;23564;48.290;11.460;2022-09-09T04:25:56;5.22;;;1.55;;
36321;SDS011;23564;48.290;11.460;2022-09-09T04:28:24;4.20;;;1.60;;
36321;SDS011;23564;48.290;11.460;2022-09-09T04:30:51;3.22;;;1.42;;
36321;SDS011;23564;48.290;11.460;2022-09-09T04:33:17;3.25;;;1.60;;
36321;SDS011;23564;48.290;11.460;2022-09-09T04:35:44;2.63;;;1.92;;
36321;SDS011;23564;48.290;11.460;2022-09-09T04:38:10;2.80;;;1.63;;
36321;SDS011;23564;48.290;11.460;2022-09-09T04:40:36;3.80;;;1.63;;
36321;SDS011;23564;48.290;11.460;2022-09-09T04:43:03;4.22;;;1.60;;
36321;SDS011;23564;48.290;11.460;2022-09-09T04:45:30;3.45;;;1.73;;
36321;SDS011;23564;48.290;11.460;2022-09-09T04:47:56;2.75;;;1.50;;
36321;SDS011;23564;48.290;11.460;2022-09-09T04:50:22;4.00;;;1.83;;
36321;SDS011;23564;48.290;11.460;2022-09-09T04:52:47;3.38;;;1.55;;
36321;SDS011;23564;48.290;11.460;2022-09-09T04:55:13;3.00;;;2.10;;
36321;SDS011;23564;48.290;11.460;2022-09-09T04:57:39;7.43;;;1.70;;
36321;SDS011;23564;48.290;11.460;2022-09-09T05:00:05;3.40;;;1.70;;
36321;SDS011;23564;48.290;11.460;2022-09-09T05:02:32;2.85;;;1.70;;
36321;SDS011;23564;48.290;11.460;2022-09-09T05:04:58;2.72;;;1.70;;
36321;SDS011;23564;48.290;11.460;2022-09-09T05:07:24;2.05;;;1.38;;
36321;SDS011;23564;48.290;11.460;2022-09-09T05:09:52;5.43;;;1.55;;
36321;SDS011;23564;48.290;11.460;2022-09-09T05:12:17;3.08;;;1.33;;
36321;SDS011;23564;48.290;11.460;2022-09-09T05:14:43;2.33;;;1.33;;
36321;SDS011;23564;48.290;11.460;2022-09-09T05:17:09;3.58;;;1.33;;
36321;SDS011;23564;48.290;11.460;2022-09-09T05:19:35;2.50;;;1.30;;
36321;SDS011;23564;48.290;11.460;2022-09-09T05:22:01;5.88;;;1.85;;
36321;SDS011;23564;48.290;11.460;2022-09-09T05:24:27;3.42;;;1.55;;
36321;SDS011;23564;48.290;11.460;2022-09-09T05:26:53;3.83;;;1.27;;
36321;SDS011;23564;48.290;11.460;2022-09-09T05:29:18;2.22;;;1.27;;
36321;SDS011;23564;48.290;11.460;2022-09-09T05:31:44;2.65;;;1.25;;
36321;SDS011;23564;48.290;11.460;2022-09-09T05:34:11;2.47;;;1.45;;
36321;SDS011;23564;48.290;11.460;2022-09-09T05:36:37;3.78;;;1.63;;
36321;SDS011;23564;48.290;11.460;2022-09-09T05:39:03;2.03;;;1.27;;
36321;SDS011;23564;48.290;11.460;2022-09-09T05:41:28;6.22;;;1.70;;
36321;SDS011;23564;48.290;11.460;2022-09-09T05:43:55;3.83;;;1.85;;
36321;SDS011;23564;48.290;11.460;2022-09-09T05:46:21;8.05;;;1.45;;
36321;SDS011;23564;48.290;11.460;2022-09-09T05:48:49;4.95;;;1.10;;
36321;SDS011;23564;48.290;11.460;2022-09-09T05:51:20;4.13;;;1.45;;
36321;SDS011;23564;48.290;11.460;2022-09-09T05:53:51;4.85;;;1.45;;
36321;SDS011;23564;48.290;11.460;2022-09-09T05:56:18;5.05;;;1.52;;
36321;SDS011;23564;48.290;11.460;2022-09-09T05:58:50;3.33;;;1.63;;
36321;SDS011;23564;48.290;11.460;2022-09-09T06:01:19;2.50;;;1.35;;
36321;SDS011;23564;48.290;11.460;2022-09-09T06:03:47;5.38;;;1.73;;
36321;SDS011;23564;48.290;11.460;2022-09-09T06:06:14;5.70;;;1.45;;
36321;SDS011;23564;48.290;11.460;2022-09-09T06:09:01;3.28;;;1.70;;
36321;SDS011;23564;48.290;11.460;2022-09-09T06:11:31;5.25;;;1.70;;
36321;SDS011;23564;48.290;11.460;2022-09-09T06:14:00;4.68;;;1.50;;
36321;SDS011;23564;48.290;11.460;2022-09-09T06:16:27;6.35;;;1.40;;
36321;SDS011;23564;48.290;11.460;2022-09-09T06:18:54;5.05;;;1.55;;
36321;SDS011;23564;48.290;11.460;2022-09-09T06:23:48;4.30;;;1.50;;
36321;SDS011;23564;48.290;11.460;2022-09-09T06:28:45;3.30;;;1.30;;
36321;SDS011;23564;48.290;11.460;2022-09-09T06:31:13;5.80;;;2.67;;
36321;SDS011;23564;48.290;11.460;2022-09-09T06:33:42;4.57;;;1.45;;
36321;SDS011;23564;48.290;11.460;2022-09-09T06:36:12;2.38;;;1.58;;
36321;SDS011;23564;48.290;11.460;2022-09-09T06:38:40;3.70;;;1.60;;
36321;SDS011;23564;48.290;11.460;2022-09-09T06:41:07;5.03;;;1.63;;
36321;SDS011;23564;48.290;11.460;2022-09-09T06:43:34;5.05;;;1.50;;
36321;SDS011;23564;48.290;11.460;2022-09-09T06:46:08;4.28;;;1.70;;
36321;SDS011;23564;48.290;11.460;2022-09-09T06:48:38;10.68;;;1.60;;
36321;SDS011;23564;48.290;11.460;2022-09-09T06:51:13;5.25;;;2.00;;
36321;SDS011;23564;48.290;11.460;2022-09-09T06:53:43;6.90;;;1.25;;
36321;SDS011;23564;48.290;11.460;2022-09-09T06:58:39;4.78;;;1.40;;
36321;SDS011;23564;48.290;11.460;2022-09-09T07:01:09;3.85;;;1.30;;
36321;SDS011;23564;48.290;11.460;2022-09-09T07:03:37;5.72;;;1.40;;
36321;SDS011;23564;48.290;11.460;2022-09-09T07:06:03;2.08;;;1.42;;
36321;SDS011;23564;48.290;11.460;2022-09-09T07:08:30;5.35;;;1.85;;
36321;SDS011;23564;48.290;11.460;2022-09-09T07:11:01;4.65;;;2.00;;
36321;SDS011;23564;48.290;11.460;2022-09-09T07:13:31;4.82;;;1.45;;
36321;SDS011;23564;48.290;11.460;2022-09-09T07:16:03;5.30;;;1.75;;
36321;SDS011;23564;48.290;11.460;2022-09-09T07:18:30;5.28;;;2.30;;
36321;SDS011;23564;48.290;11.460;2022-09-09T07:20:56;5.47;;;1.70;;
36321;SDS011;23564;48.290;11.460;2022-09-09T07:23:22;3.85;;;1.80;;
36321;SDS011;23564;48.290;11.460;2022-09-09T07:25:48;3.88;;;1.80;;
36321;SDS011;23564;48.290;11.460;2022-09-09T07:28:15;4.70;;;2.20;;
36321;SDS011;23564;48.290;11.460;2022-09-09T07:30:41;2.65;;;1.80;;
36321;SDS011;23564;48.290;11.460;2022-09-09T07:33:08;5.43;;;2.05;;
36321;SDS011;23564;48.290;11.460;2022-09-09T07:35:37;5.90;;;2.33;;
36321;SDS011;23564;48.290;11.460;2022-09-09T07:38:02;4.68;;;2.10;;
36321;SDS011;23564;48.290;11.460;2022-09-09T07:40:31;5.05;;;2.17;;
36321;SDS011;23564;48.290;11.460;2022-09-09T07:42:57;5.00;;;2.70;;
36321;SDS011;23564;48.290;11.460;2022-09-09T07:45:24;5.00;;;1.75;;
36321;SDS011;23564;48.290;11.460;2022-09-09T07:47:49;3.47;;;1.85;;
36321;SDS011;23564;48.290;11.460;2022-09-09T07:50:15;2.65;;;1.60;;
36321;SDS011;23564;48.290;11.460;2022-09-09T07:52:41;2.95;;;2.17;;
36321;SDS011;23564;48.290;11.460;2022-09-09T07:55:06;5.25;;;1.95;;
36321;SDS011;23564;48.290;11.460;2022-09-09T07:57:32;5.13;;;2.10;;
36321;SDS011;23564;48.290;11.460;2022-09-09T07:59:58;2.88;;;1.80;;
36321;SDS011;23564;48.290;11.460;2022-09-09T08:02:24;2.25;;;1.65;;
36321;SDS011;23564;48.290;11.460;2022-09-09T08:04:50;8.15;;;2.33;;
36321;SDS011;23564;48.290;11.460;2022-09-09T08:07:16;2.33;;;1.70;;
36321;SDS011;23564;48.290;11.460;2022-09-09T08:09:42;4.57;;;1.60;;
36321;SDS011;23564;48.290;11.460;2022-09-09T08:12:08;3.60;;;1.80;;
36321;SDS011;23564;48.290;11.460;2022-09-09T08:14:37;9.13;;;2.05;;
36321;SDS011;23564;48.290;11.460;2022-09-09T08:17:04;2.70;;;1.80;;
36321;SDS011;23564;48.290;11.460;2022-09-09T08:19:29;4.15;;;2.10;;
36321;SDS011;23564;48.290;11.460;2022-09-09T08:21:55;4.30;;;1.60;;
36321;SDS011;23564;48.290;11.460;2022-09-09T08:24:21;3.55;;;2.10;;
36321;SDS011;23564;48.290;11.460;2022-09-09T08:26:48;3.92;;;2.03;;
36321;SDS011;23564;48.290;11.460;2022-09-09T08:29:14;3.03;;;2.10;;
36321;SDS011;23564;48.290;11.460;2022-09-09T08:31:42;2.63;;;1.70;;
36321;SDS011;23564;48.290;11.460;2022-09-09T08:34:09;2.63;;;1.38;;
36321;SDS011;23564;48.290;11.460;2022-09-09T08:36:36;3.92;;;1.60;;
36321;SDS011;23564;48.290;11.460;2022-09-09T08:39:04;3.03;;;1.75;;
36321;SDS011;23564;48.290;11.460;2022-09-09T08:46:59;4.47;;;1.95;;
36321;SDS011;23564;48.290;11.460;2022-09-09T08:52:28;4.80;;;1.80;;
36321;SDS011;23564;48.290;11.460;2022-09-09T08:55:20;5.45;;;1.67;;
36321;SDS011;23564;48.290;11.460;2022-09-09T08:57:49;4.18;;;1.75;;
36321;SDS011;23564;48.290;11.460;2022-09-09T09:00:18;4.88;;;1.83;;
36321;SDS011;23564;48.290;11.460;2022-09-09T09:03:00;4.90;;;2.10;;
36321;SDS011;23564;48.290;11.460;2022-09-09T09:05:47;2.58;;;1.73;;
36321;SDS011;23564;48.290;11.460;2022-09-09T09:08:26;6.72;;;1.85;;
36321;SDS011;23564;48.290;11.460;2022-09-09T09:11:02;4.93;;;1.70;;
36321;SDS011;23564;48.290;11.460;2022-09-09T09:13:43;2.83;;;1.38;;
36321;SDS011;23564;48.290;11.460;2022-09-09T09:16:38;2.80;;;1.70;;
36321;SDS011;23564;48.290;11.460;2022-09-09T09:19:14;3.28;;;1.20;;
36321;SDS011;23564;48.290;11.460;2022-09-09T09:21:42;1.92;;;1.02;;
36321;SDS011;23564;48.290;11.460;2022-09-09T09:24:13;3.97;;;1.17;;
36321;SDS011;23564;48.290;11.460;2022-09-09T09:26:47;3.15;;;1.30;;
36321;SDS011;23564;48.290;11.460;2022-09-09T09:29:13;3.45;;;1.30;;
36321;SDS011;23564;48.290;11.460;2022-09-09T09:31:45;4.05;;;1.17;;
36321;SDS011;23564;48.290;11.460;2022-09-09T09:34:17;3.60;;;1.45;;
36321;SDS011;23564;48.290;11.460;2022-09-09T09:39:21;2.15;;;1.30;;
36321;SDS011;23564;48.290;11.460;2022-09-09T09:41:48;1.88;;;1.05;;
36321;SDS011;23564;48.290;11.460;2022-09-09T09:44:27;3.65;;;1.20;;
36321;SDS011;23564;48.290;11.460;2022-09-09T09:47:13;2.60;;;1.30;;
36321;SDS011;23564;48.290;11.460;2022-09-09T09:49:56;2.85;;;1.30;;
36321;SDS011;23564;48.290;11.460;2022-09-09T09:52:28;4.07;;;1.42;;
36321;SDS011;23564;48.290;11.460;2022-09-09T09:54:55;2.45;;;1.27;;
36321;SDS011;23564;48.290;11.460;2022-09-09T09:57:27;2.70;;;1.20;;
36321;SDS011;23564;48.290;11.460;2022-09-09T10:02:43;2.80;;;1.38;;
36321;SDS011;23564;48.290;11.460;2022-09-09T10:07:41;6.40;;;1.48;;
36321;SDS011;23564;48.290;11.460;2022-09-09T10:10:12;3.08;;;0.95;;
36321;SDS011;23564;48.290;11.460;2022-09-09T10:13:02;2.35;;;0.98;;
36321;SDS011;23564;48.290;11.460;2022-09-09T10:18:45;3.15;;;1.10;;
36321;SDS011;23564;48.290;11.460;2022-09-09T10:21:44;1.48;;;1.00;;
36321;SDS011;23564;48.290;11.460;2022-09-09T10:27:40;3.70;;;1.33;;
36321;SDS011;23564;48.290;11.460;2022-09-09T10:30:34;1.85;;;1.05;;
36321;SDS011;23564;48.290;11.460;2022-09-09T10:33:41;2.50;;;0.90;;
36321;SDS011;23564;48.290;11.460;2022-09-09T10:36:27;4.10;;;0.90;;
36321;SDS011;23564;48.290;11.460;2022-09-09T10:42:05;1.85;;;0.98;;
36321;SDS011;23564;48.290;11.460;2022-09-09T10:44:46;3.70;;;1.17;;
36321;SDS011;23564;48.290;11.460;2022-09-09T10:47:26;4.10;;;1.25;;
36321;SDS011;23564;48.290;11.460;2022-09-09T10:55:26;6.35;;;1.10;;
36321;SDS011;23564;48.290;11.460;2022-09-09T10:58:02;2.72;;;0.80;;
36321;SDS011;23564;48.290;11.460;2022-09-09T11:03:04;2.88;;;0.80;;
36321;SDS011;23564;48.290;11.460;2022-09-09T11:05:36;4.80;;;1.10;;
36321;SDS011;23564;48.290;11.460;2022-09-09T11:08:10;2.38;;;0.85;;
36321;SDS011;23564;48.290;11.460;2022-09-09T11:10:44;3.70;;;1.00;;
36321;SDS011;23564;48.290;11.460;2022-09-09T11:16:00;2.10;;;1.00;;
36321;SDS011;23564;48.290;11.460;2022-09-09T11:18:36;4.78;;;0.82;;
36321;SDS011;23564;48.290;11.460;2022-09-09T11:21:12;1.48;;;0.60;;
36321;SDS011;23564;48.290;11.460;2022-09-09T11:23:53;1.75;;;0.75;;
36321;SDS011;23564;48.290;11.460;2022-09-09T11:26:53;1.85;;;0.90;;
36321;SDS011;23564;48.290;11.460;2022-09-09T11:34:55;3.15;;;0.70;;
36321;SDS011;23564;48.290;11.460;2022-09-09T11:40:18;4.32;;;0.65;;
36321;SDS011;23564;48.290;11.460;2022-09-09T11:42:47;3.60;;;1.00;;
36321;SDS011;23564;48.290;11.460;2022-09-09T11:45:22;7.05;;;1.00;;
36321;SDS011;23564;48.290;11.460;2022-09-09T11:47:59;2.22;;;0.68;;
36321;SDS011;23564;48.290;11.460;2022-09-09T11:53:02;2.65;;;0.80;;
36321;SDS011;23564;48.290;11.460;2022-09-09T11:55:42;2.22;;;0.65;;
36321;SDS011;23564;48.290;11.460;2022-09-09T12:08:51;2.67;;;0.95;;
36321;SDS011;23564;48.290;11.460;2022-09-09T12:11:28;2.72;;;0.65;;
36321;SDS011;23564;48.290;11.460;2022-09-09T12:13:56;2.28;;;0.65;;
36321;SDS011;23564;48.290;11.460;2022-09-09T12:16:32;4.35;;;0.80;;
36321;SDS011;23564;48.290;11.460;2022-09-09T12:19:03;3.67;;;0.68;;
36321;SDS011;23564;48.290;11.460;2022-09-09T12:21:40;5.40;;;0.60;;
36321;SDS011;23564;48.290;11.460;2022-09-09T12:24:17;2.20;;;0.50;;
36321;SDS011;23564;48.290;11.460;2022-09-09T12:27:27;3.03;;;0.70;;
36321;SDS011;23564;48.290;11.460;2022-09-09T12:29:56;2.95;;;0.70;;
36321;SDS011;23564;48.290;11.460;2022-09-09T12:32:24;1.50;;;0.45;;
36321;SDS011;23564;48.290;11.460;2022-09-09T12:34:52;6.20;;;1.00;;
36321;SDS011;23564;48.290;11.460;2022-09-09T12:39:58;2.03;;;0.70;;
36321;SDS011;23564;48.290;11.460;2022-09-09T12:42:27;3.60;;;0.60;;
36321;SDS011;23564;48.290;11.460;2022-09-09T12:47:27;5.32;;;0.80;;
36321;SDS011;23564;48.290;11.460;2022-09-09T12:49:54;1.23;;;0.60;;
36321;SDS011;23564;48.290;11.460;2022-09-09T12:52:26;3.08;;;0.70;;
36321;SDS011;23564;48.290;11.460;2022-09-09T12:54:59;1.30;;;0.38;;
36321;SDS011;23564;48.290;11.460;2022-09-09T12:57:29;4.05;;;0.55;;
36321;SDS011;23564;48.290;11.460;2022-09-09T13:00:34;5.30;;;0.93;;
36321;SDS011;23564;48.290;11.460;2022-09-09T13:02:56;6.78;;;0.60;;
36321;SDS011;23564;48.290;11.460;2022-09-09T13:07:51;2.50;;;0.57;;
36321;SDS011;23564;48.290;11.460;2022-09-09T13:10:27;2.55;;;0.50;;
36321;SDS011;23564;48.290;11.460;2022-09-09T13:12:56;2.30;;;0.52;;
36321;SDS011;23564;48.290;11.460;2022-09-09T13:15:24;4.80;;;0.70;;
36321;SDS011;23564;48.290;11.460;2022-09-09T13:17:54;5.80;;;0.70;;
36321;SDS011;23564;48.290;11.460;2022-09-09T13:20:26;7.30;;;0.40;;
36321;SDS011;23564;48.290;11.460;2022-09-09T13:22:53;3.03;;;0.55;;
36321;SDS011;23564;48.290;11.460;2022-09-09T13:25:21;2.38;;;0.50;;
36321;SDS011;23564;48.290;11.460;2022-09-09T13:28:00;7.35;;;0.57;;
36321;SDS011;23564;48.290;11.460;2022-09-09T13:30:31;3.67;;;0.50;;
36321;SDS011;23564;48.290;11.460;2022-09-09T13:33:02;2.17;;;0.50;;
36321;SDS011;23564;48.290;11.460;2022-09-09T13:35:34;2.65;;;0.52;;
36321;SDS011;23564;48.290;11.460;2022-09-09T13:38:12;5.32;;;0.75;;
36321;SDS011;23564;48.290;11.460;2022-09-09T13:40:39;5.68;;;0.60;;
36321;SDS011;23564;48.290;11.460;2022-09-09T13:43:05;1.67;;;0.38;;
36321;SDS011;23564;48.290;11.460;2022-09-09T13:45:51;1.10;;;0.40;;
36321;SDS011;23564;48.290;11.460;2022-09-09T13:48:18;1.80;;;0.80;;
36321;SDS011;23564;48.290;11.460;2022-09-09T13:50:53;1.73;;;0.30;;
36321;SDS011;23564;48.290;11.460;2022-09-09T13:53:31;2.75;;;0.47;;
36321;SDS011;23564;48.290;11.460;2022-09-09T13:55:58;4.30;;;0.60;;
36321;SDS011;23564;48.290;11.460;2022-09-09T13:58:24;4.65;;;0.80;;
36321;SDS011;23564;48.290;11.460;2022-09-09T14:00:51;0.77;;;0.40;;
36321;SDS011;23564;48.290;11.460;2022-09-09T14:03:17;4.88;;;0.70;;
36321;SDS011;23564;48.290;11.460;2022-09-09T14:05:44;2.80;;;0.57;;
36321;SDS011;23564;48.290;11.460;2022-09-09T14:08:12;2.60;;;0.50;;
36321;SDS011;23564;48.290;11.460;2022-09-09T14:10:50;3.10;;;0.55;;
36321;SDS011;23564;48.290;11.460;2022-09-09T14:13:15;4.85;;;0.85;;
36321;SDS011;23564;48.290;11.460;2022-09-09T14:15:41;1.55;;;0.52;;
36321;SDS011;23564;48.290;11.460;2022-09-09T14:18:09;2.28;;;0.50;;
36321;SDS011;23564;48.290;11.460;2022-09-09T14:20:36;6.03;;;0.73;;
36321;SDS011;23564;48.290;11.460;2022-09-09T14:23:02;1.35;;;0.40;;
36321;SDS011;23564;48.290;11.460;2022-09-09T14:25:28;2.17;;;0.68;;
36321;SDS011;23564;48.290;11.460;2022-09-09T14:27:53;2.00;;;0.68;;
36321;SDS011;23564;48.290;11.460;2022-09-09T14:30:19;2.03;;;0.60;;
36321;SDS011;23564;48.290;11.460;2022-09-09T14:32:44;1.98;;;0.52;;
36321;SDS011;23564;48.290;11.460;2022-09-09T14:35:10;0.73;;;0.40;;
36321;SDS011;23564;48.290;11.460;2022-09-09T14:37:37;3.95;;;0.70;;
36321;SDS011;23564;48.290;11.460;2022-09-09T14:40:04;3.28;;;0.50;;
36321;SDS011;23564;48.290;11.460;2022-09-09T14:42:30;4.88;;;0.82;;
36321;SDS011;23564;48.290;11.460;2022-09-09T14:44:55;3.28;;;0.65;;
36321;SDS011;23564;48.290;11.460;2022-09-09T14:47:21;1.75;;;0.40;;
36321;SDS011;23564;48.290;11.460;2022-09-09T14:49:47;0.98;;;0.60;;
36321;SDS011;23564;48.290;11.460;2022-09-09T14:52:14;2.25;;;0.50;;
36321;SDS011;23564;48.290;11.460;2022-09-09T14:54:40;3.50;;;0.73;;
36321;SDS011;23564;48.290;11.460;2022-09-09T14:57:05;1.80;;;0.57;;
36321;SDS011;23564;48.290;11.460;2022-09-09T14:59:31;2.17;;;0.73;;
36321;SDS011;23564;48.290;11.460;2022-09-09T15:01:56;1.77;;;0.50;;
36321;SDS011;23564;48.290;11.460;2022-09-09T15:04:22;1.75;;;0.50;;
36321;SDS011;23564;48.290;11.460;2022-09-09T15:06:47;8.50;;;0.70;;
36321;SDS011;23564;48.290;11.460;2022-09-09T15:09:15;1.30;;;0.50;;
36321;SDS011;23564;48.290;11.460;2022-09-09T15:11:40;1.70;;;0.50;;
36321;SDS011;23564;48.290;11.460;2022-09-09T15:14:07;1.77;;;0.65;;
36321;SDS011;23564;48.290;11.460;2022-09-09T15:16:33;3.17;;;0.70;;
36321;SDS011;23564;48.290;11.460;2022-09-09T15:19:00;0.80;;;0.40;;
36321;SDS011;23564;48.290;11.460;2022-09-09T15:21:27;2.42;;;0.50;;
36321;SDS011;23564;48.290;11.460;2022-09-09T15:23:57;2.70;;;0.57;;
36321;SDS011;23564;48.290;11.460;2022-09-09T15:26:24;1.90;;;0.60;;
36321;SDS011;23564;48.290;11.460;2022-09-09T15:28:50;3.50;;;0.93;;
36321;SDS011;23564;48.290;11.460;2022-09-09T15:31:17;3.63;;;0.57;;
36321;SDS011;23564;48.290;11.460;2022-09-09T15:33:52;1.13;;;0.35;;
36321;SDS011;23564;48.290;11.460;2022-09-09T15:36:25;1.77;;;0.50;;
36321;SDS011;23564;48.290;11.460;2022-09-09T15:39:02;2.85;;;0.40;;
36321;SDS011;23564;48.290;11.460;2022-09-09T15:41:29;3.72;;;0.57;;
36321;SDS011;23564;48.290;11.460;2022-09-09T15:43:56;1.95;;;0.60;;
36321;SDS011;23564;48.290;11.460;2022-09-09T15:46:26;2.38;;;0.20;;
36321;SDS011;23564;48.290;11.460;2022-09-09T15:51:39;3.88;;;0.52;;
36321;SDS011;23564;48.290;11.460;2022-09-09T15:54:07;3.92;;;0.73;;
36321;SDS011;23564;48.290;11.460;2022-09-09T15:56:34;1.42;;;0.40;;
36321;SDS011;23564;48.290;11.460;2022-09-09T15:59:01;1.23;;;0.32;;
36321;SDS011;23564;48.290;11.460;2022-09-09T16:01:28;3.05;;;0.70;;
36321;SDS011;23564;48.290;11.460;2022-09-09T16:03:56;5.75;;;0.70;;
36321;SDS011;23564;48.290;11.460;2022-09-09T16:06:23;1.30;;;0.60;;
36321;SDS011;23564;48.290;11.460;2022-09-09T16:08:50;2.95;;;0.80;;
36321;SDS011;23564;48.290;11.460;2022-09-09T16:11:21;4.22;;;0.70;;
36321;SDS011;23564;48.290;11.460;2022-09-09T16:13:49;5.25;;;0.55;;
36321;SDS011;23564;48.290;11.460;2022-09-09T16:16:17;2.53;;;0.70;;
36321;SDS011;23564;48.290;11.460;2022-09-09T16:18:47;1.27;;;0.38;;
36321;SDS011;23564;48.290;11.460;2022-09-09T16:21:21;1.23;;;0.55;;
36321;SDS011;23564;48.290;11.460;2022-09-09T16:23:59;1.85;;;0.60;;
36321;SDS011;23564;48.290;11.460;2022-09-09T16:26:27;3.22;;;0.70;;
36321;SDS011;23564;48.290;11.460;2022-09-09T16:28:54;2.17;;;0.43;;
36321;SDS011;23564;48.290;11.460;2022-09-09T16:31:21;2.15;;;0.35;;
36321;SDS011;23564;48.290;11.460;2022-09-09T16:33:48;1.67;;;0.40;;
36321;SDS011;23564;48.290;11.460;2022-09-09T16:36:16;2.10;;;0.65;;
36321;SDS011;23564;48.290;11.460;2022-09-09T16:38:44;2.47;;;0.52;;
36321;SDS011;23564;48.290;11.460;2022-09-09T16:41:10;4.32;;;0.70;;
36321;SDS011;23564;48.290;11.460;2022-09-09T16:43:36;2.40;;;0.93;;
36321;SDS011;23564;48.290;11.460;2022-09-09T16:46:03;1.75;;;0.52;;
36321;SDS011;23564;48.290;11.460;2022-09-09T16:48:36;1.70;;;0.57;;
36321;SDS011;23564;48.290;11.460;2022-09-09T16:51:05;2.17;;;0.80;;
36321;SDS011;23564;48.290;11.460;2022-09-09T16:53:33;2.00;;;0.60;;
36321;SDS011;23564;48.290;11.460;2022-09-09T16:56:06;3.42;;;0.70;;
36321;SDS011;23564;48.290;11.460;2022-09-09T16:58:33;1.92;;;0.80;;
36321;SDS011;23564;48.290;11.460;2022-09-09T17:00:59;2.78;;;0.63;;
36321;SDS011;23564;48.290;11.460;2022-09-09T17:03:28;4.03;;;0.82;;